Time;durP1;ratioP1;P1;durP2;ratioP2;P2;SDS_P1;SDS_P2;PMS_P1;PMS_P2;Temp;Humidity;BMP_temperature;BMP_pressure;BME280_temperature;BME280_humidity;BME280_pressure;Samples;Min_cycle;Max_cycle;Signal;HPM_P1;HPM_P2
2021/07/16 00:00:15;;;;;;;25.77;17.23;;;18.00;99.90;;;;;;4823404;29;20470;-80
2021/07/16 00:02:44;;;;;;;23.07;17.30;;;18.10;99.90;;;;;;4823629;29;20481;-79
2021/07/16 00:05:12;;;;;;;20.83;16.77;;;18.10;99.90;;;;;;4823299;29;20570;-81
2021/07/16 00:07:39;;;;;;;25.33;16.47;;;18.00;99.90;;;;;;4823937;29;20434;-80
2021/07/16 00:10:08;;;;;;;24.63;15.93;;;18.00;99.90;;;;;;4823288;29;20565;-80
2021/07/16 00:12:36;;;;;;;22.87;15.67;;;18.00;99.90;;;;;;4824049;29;20461;-79
2021/07/16 00:15:05;;;;;;;20.03;15.97;;;18.00;99.90;;;;;;4823027;29;20470;-82
2021/07/16 00:17:31;;;;;;;24.43;18.07;;;18.00;99.90;;;;;;4823424;29;20931;-79
2021/07/16 00:19:58;;;;;;;20.60;16.53;;;18.10;99.90;;;;;;4823077;29;20478;-80
2021/07/16 00:22:26;;;;;;;22.40;16.60;;;18.00;99.90;;;;;;4837561;29;20937;-79
2021/07/16 00:24:53;;;;;;;26.53;18.10;;;18.00;99.90;;;;;;4823180;29;20514;-79
2021/07/16 00:27:20;;;;;;;25.70;17.87;;;18.00;99.90;;;;;;4823290;29;20427;-80
2021/07/16 00:29:48;;;;;;;21.33;16.33;;;17.90;99.90;;;;;;4822993;29;20467;-81
2021/07/16 00:32:14;;;;;;;23.73;16.57;;;18.00;99.90;;;;;;4823334;29;20536;-79
2021/07/16 00:34:42;;;;;;;27.90;17.27;;;18.00;99.90;;;;;;4822605;29;20560;-81
2021/07/16 00:37:08;;;;;;;28.77;18.97;;;17.90;99.90;;;;;;4822277;29;20845;-80
2021/07/16 00:39:37;;;;;;;24.67;18.97;;;17.90;99.90;;;;;;4822952;29;20485;-78
2021/07/16 00:42:04;;;;;;;30.47;19.00;;;18.00;99.90;;;;;;4836614;29;20465;-79
2021/07/16 00:44:34;;;;;;;27.93;18.97;;;17.90;99.90;;;;;;4840900;29;20482;-81
2021/07/16 00:47:01;;;;;;;29.53;18.63;;;17.90;99.90;;;;;;4841499;29;20433;-78
2021/07/16 00:49:28;;;;;;;34.07;18.73;;;17.90;99.90;;;;;;4831734;29;20555;-80
2021/07/16 00:51:55;;;;;;;30.70;20.07;;;17.90;99.90;;;;;;4823078;29;20431;-79
2021/07/16 00:54:22;;;;;;;26.33;18.97;;;17.80;99.90;;;;;;4822461;29;20577;-81
2021/07/16 00:56:50;;;;;;;25.67;18.13;;;17.80;99.90;;;;;;4837248;29;20477;-81
2021/07/16 00:59:18;;;;;;;26.77;17.80;;;17.80;99.90;;;;;;4822379;29;20550;-79
2021/07/16 01:01:46;;;;;;;25.80;16.93;;;17.80;99.90;;;;;;4823793;29;20517;-82
2021/07/16 01:04:14;;;;;;;28.30;19.13;;;17.80;99.90;;;;;;4840716;29;20507;-79
2021/07/16 01:06:41;;;;;;;24.83;17.53;;;17.70;99.90;;;;;;4839957;29;20929;-80
2021/07/16 01:09:08;;;;;;;22.80;16.73;;;17.80;99.90;;;;;;4835654;29;20575;-81
2021/07/16 01:11:35;;;;;;;29.07;16.70;;;17.70;99.90;;;;;;4823106;29;20525;-79
2021/07/16 01:14:02;;;;;;;23.13;16.33;;;17.80;99.90;;;;;;4822493;29;20492;-78
2021/07/16 01:16:29;;;;;;;24.77;15.77;;;17.70;99.90;;;;;;4838536;29;20556;-81
2021/07/16 01:18:58;;;;;;;25.83;16.97;;;17.70;99.90;;;;;;4850059;29;20854;-81
2021/07/16 01:21:27;;;;;;;24.97;16.70;;;17.70;99.90;;;;;;4822703;29;20774;-78
2021/07/16 01:23:54;;;;;;;27.47;15.17;;;17.70;99.90;;;;;;4822165;29;20477;-78
2021/07/16 01:26:21;;;;;;;21.33;14.77;;;17.60;99.90;;;;;;4822692;29;20969;-77
2021/07/16 01:28:50;;;;;;;27.57;17.13;;;17.60;99.90;;;;;;4822057;29;20489;-79
2021/07/16 01:31:17;;;;;;;25.20;16.27;;;17.60;99.90;;;;;;4836615;29;20434;-80
2021/07/16 01:33:44;;;;;;;30.30;16.07;;;17.60;99.90;;;;;;4821262;29;20513;-79
2021/07/16 01:36:10;;;;;;;21.67;15.70;;;17.60;99.90;;;;;;4822483;29;20511;-80
2021/07/16 01:38:37;;;;;;;26.80;17.03;;;17.60;99.90;;;;;;4825164;29;20901;-79
2021/07/16 01:41:05;;;;;;;25.07;15.63;;;17.60;99.90;;;;;;4831694;29;20429;-80
2021/07/16 01:43:31;;;;;;;23.53;14.23;;;17.60;99.90;;;;;;4843713;29;20547;-80
2021/07/16 01:45:58;;;;;;;26.37;15.30;;;17.60;99.90;;;;;;4844106;29;20493;-79
2021/07/16 01:48:27;;;;;;;22.17;15.27;;;17.60;99.90;;;;;;4831787;29;20473;-80
2021/07/16 01:50:54;;;;;;;26.13;15.77;;;17.60;99.90;;;;;;4825487;29;20524;-79
2021/07/16 01:53:21;;;;;;;18.60;13.00;;;17.50;99.90;;;;;;4825302;29;20454;-79
2021/07/16 01:55:48;;;;;;;24.37;15.33;;;17.50;99.90;;;;;;4842942;29;20469;-77
2021/07/16 01:58:16;;;;;;;21.73;13.23;;;17.50;99.90;;;;;;4843334;29;20441;-80
2021/07/16 02:00:45;;;;;;;18.33;14.10;;;17.50;99.90;;;;;;4842944;29;20438;-78
2021/07/16 02:03:15;;;;;;;24.93;15.70;;;17.50;99.90;;;;;;4842385;29;20553;-80
2021/07/16 02:05:44;;;;;;;22.23;14.37;;;17.50;99.90;;;;;;4844406;29;20792;-80
2021/07/16 02:08:20;;;;;;;19.20;13.40;;;17.50;99.90;;;;;;4843209;29;20878;-79
2021/07/16 02:10:51;;;;;;;17.40;12.90;;;17.50;99.90;;;;;;4823647;29;20469;-79
2021/07/16 02:13:18;;;;;;;17.90;12.90;;;17.50;99.90;;;;;;4824812;29;20454;-79
2021/07/16 02:15:47;;;;;;;20.03;11.33;;;17.50;99.90;;;;;;4827024;29;20498;-78
2021/07/16 02:18:15;;;;;;;18.17;13.03;;;17.40;99.90;;;;;;4829903;29;20510;-81
2021/07/16 02:20:42;;;;;;;22.77;12.90;;;17.40;99.90;;;;;;4824196;29;20511;-80
2021/07/16 02:23:14;;;;;;;21.57;13.43;;;17.40;99.90;;;;;;4824492;29;20485;-79
2021/07/16 02:25:41;;;;;;;32.00;13.33;;;17.40;99.90;;;;;;4824330;29;20965;-80
2021/07/16 02:28:12;;;;;;;20.77;13.30;;;17.40;99.90;;;;;;4823567;29;20457;-80
2021/07/16 02:30:39;;;;;;;19.10;12.23;;;17.40;99.90;;;;;;4825131;29;20430;-82
2021/07/16 02:33:06;;;;;;;19.67;13.07;;;17.40;99.90;;;;;;4824485;29;20500;-82
2021/07/16 02:35:33;;;;;;;26.90;14.27;;;17.40;99.90;;;;;;4825025;29;20505;-81
2021/07/16 02:38:01;;;;;;;24.80;13.00;;;17.30;99.90;;;;;;4823622;29;20439;-83
2021/07/16 02:40:29;;;;;;;24.43;11.80;;;17.30;99.90;;;;;;4826229;29;20480;-82
2021/07/16 02:42:56;;;;;;;23.50;14.20;;;17.30;99.90;;;;;;4857290;29;20532;-82
2021/07/16 02:45:23;;;;;;;29.90;14.27;;;17.30;99.90;;;;;;4842568;29;20999;-82
2021/07/16 02:47:51;;;;;;;20.13;12.53;;;17.20;99.90;;;;;;4834522;29;20457;-82
2021/07/16 02:50:21;;;;;;;17.43;14.30;;;17.20;99.90;;;;;;4824013;29;20470;-83
2021/07/16 02:52:48;;;;;;;18.73;12.10;;;17.20;99.90;;;;;;4824967;29;20872;-80
2021/07/16 02:55:17;;;;;;;21.53;13.90;;;17.20;99.90;;;;;;4824003;29;20861;-83
2021/07/16 02:57:44;;;;;;;27.83;13.30;;;17.20;99.90;;;;;;4824543;29;20507;-82
2021/07/16 03:00:13;;;;;;;19.60;13.60;;;17.20;99.90;;;;;;4824060;29;20525;-82
2021/07/16 03:02:42;;;;;;;18.80;12.17;;;17.20;99.90;;;;;;4828045;29;20437;-84
2021/07/16 03:05:11;;;;;;;18.00;13.00;;;17.20;99.90;;;;;;4837540;29;20845;-81
2021/07/16 03:07:38;;;;;;;29.73;13.27;;;17.20;99.90;;;;;;4842651;29;20804;-83
2021/07/16 03:10:08;;;;;;;16.87;13.60;;;17.20;99.90;;;;;;4828486;29;20529;-83
2021/07/16 03:12:36;;;;;;;18.13;11.83;;;17.20;99.90;;;;;;4824653;29;20437;-83
2021/07/16 03:15:08;;;;;;;18.10;13.03;;;17.10;99.90;;;;;;4824172;29;20534;-84
2021/07/16 03:17:39;;;;;;;25.83;13.70;;;17.10;99.90;;;;;;4838516;29;20482;-83
2021/07/16 03:20:15;;;;;;;20.33;12.13;;;17.10;99.90;;;;;;4838085;29;20481;-81
2021/07/16 03:22:42;;;;;;;19.10;11.43;;;17.10;99.90;;;;;;4824451;29;21072;-83
2021/07/16 03:25:12;;;;;;;20.43;13.43;;;17.10;99.90;;;;;;4851207;29;20576;-83
2021/07/16 03:27:39;;;;;;;18.80;14.00;;;17.10;99.90;;;;;;4842587;29;20533;-82
2021/07/16 03:30:10;;;;;;;22.77;13.70;;;17.10;99.90;;;;;;4842060;29;20503;-84
2021/07/16 03:32:37;;;;;;;24.47;14.33;;;17.10;99.90;;;;;;4819080;29;20453;-83
2021/07/16 03:35:06;;;;;;;20.07;13.17;;;17.10;99.90;;;;;;4823767;29;20466;-84
2021/07/16 03:37:37;;;;;;;18.73;12.00;;;17.10;99.90;;;;;;4824344;29;20473;-84
2021/07/16 03:40:07;;;;;;;15.90;12.33;;;17.10;99.90;;;;;;4835821;29;20484;-84
2021/07/16 03:42:34;;;;;;;19.93;13.80;;;17.00;99.90;;;;;;4842764;29;20529;-83
2021/07/16 03:45:02;;;;;;;22.20;12.67;;;17.00;99.90;;;;;;4856984;29;20479;-80
2021/07/16 03:47:29;;;;;;;20.60;12.90;;;17.10;99.90;;;;;;4835092;29;20460;-83
2021/07/16 03:49:57;;;;;;;18.40;11.87;;;17.10;99.90;;;;;;4824189;29;20462;-84
2021/07/16 03:52:24;;;;;;;19.17;12.53;;;17.00;99.90;;;;;;4824532;29;20434;-84
2021/07/16 03:54:52;;;;;;;14.00;11.00;;;17.00;99.90;;;;;;4838011;29;20498;-84
2021/07/16 03:57:19;;;;;;;23.97;13.23;;;17.00;99.90;;;;;;4824213;29;20490;-83
2021/07/16 03:59:45;;;;;;;17.77;12.20;;;17.00;99.90;;;;;;4823461;29;21073;-84
2021/07/16 04:02:12;;;;;;;23.33;11.17;;;17.00;99.90;;;;;;4824495;29;20429;-85
2021/07/16 04:04:40;;;;;;;22.33;12.30;;;17.00;99.90;;;;;;4824437;29;20538;-86
2021/07/16 04:07:09;;;;;;;18.07;11.53;;;17.00;99.90;;;;;;4837816;29;20434;-84
2021/07/16 04:09:36;;;;;;;13.90;9.70;;;17.00;99.90;;;;;;4824367;29;20477;-83
2021/07/16 04:12:15;;;;;;;29.27;12.90;;;17.00;99.90;;;;;;4824100;29;20436;-84
2021/07/16 04:14:53;;;;;;;19.60;12.83;;;17.00;99.90;;;;;;4823957;29;20849;-85
2021/07/16 04:17:25;;;;;;;15.80;12.50;;;17.00;99.90;;;;;;4824352;29;20512;-83
2021/07/16 04:19:53;;;;;;;18.37;12.83;;;16.90;99.90;;;;;;4823720;29;20469;-83
2021/07/16 04:22:23;;;;;;;20.50;10.97;;;16.90;99.90;;;;;;4837856;29;20503;-84
2021/07/16 04:24:51;;;;;;;16.73;10.67;;;16.90;99.90;;;;;;4831220;29;20479;-84
2021/07/16 04:27:26;;;;;;;17.10;10.00;;;16.90;99.90;;;;;;4825747;29;20437;-82
2021/07/16 04:29:53;;;;;;;14.23;9.77;;;16.90;99.90;;;;;;4855242;29;20461;-84
2021/07/16 04:32:20;;;;;;;14.60;9.70;;;16.90;99.90;;;;;;4837709;29;20456;-83
2021/07/16 04:34:47;;;;;;;19.20;11.73;;;16.80;99.90;;;;;;4823512;29;20482;-84
2021/07/16 04:37:14;;;;;;;16.73;10.23;;;16.80;99.90;;;;;;4837301;29;20501;-84
2021/07/16 04:39:41;;;;;;;12.70;10.30;;;16.80;99.90;;;;;;4823800;29;20485;-84
2021/07/16 04:42:08;;;;;;;18.67;9.13;;;16.80;99.90;;;;;;4837293;29;20437;-83
2021/07/16 04:44:36;;;;;;;14.10;10.30;;;16.80;99.90;;;;;;4840693;29;20499;-84
2021/07/16 04:47:03;;;;;;;14.70;10.43;;;16.70;99.90;;;;;;4834957;29;20504;-84
2021/07/16 04:49:30;;;;;;;16.37;9.70;;;16.70;99.90;;;;;;4821598;29;20484;-82
2021/07/16 04:51:59;;;;;;;18.53;10.00;;;16.70;99.90;;;;;;4823099;29;20494;-84
2021/07/16 04:54:27;;;;;;;18.40;10.00;;;16.70;99.90;;;;;;4836063;29;20489;-85
2021/07/16 04:56:54;;;;;;;13.70;9.80;;;16.70;99.90;;;;;;4837324;29;20469;-84
2021/07/16 04:59:21;;;;;;;14.27;9.40;;;16.70;99.90;;;;;;4837169;29;20469;-83
2021/07/16 05:01:49;;;;;;;18.33;9.87;;;16.60;99.90;;;;;;4823647;29;20438;-83
2021/07/16 05:04:17;;;;;;;17.17;10.37;;;16.60;99.90;;;;;;4836651;29;20497;-84
2021/07/16 05:06:45;;;;;;;14.20;10.00;;;16.60;99.90;;;;;;4822281;29;20809;-84
2021/07/16 05:09:12;;;;;;;18.53;10.27;;;16.70;99.90;;;;;;4823133;29;20502;-84
2021/07/16 05:11:39;;;;;;;15.20;10.70;;;16.70;99.90;;;;;;4823421;29;21071;-85
2021/07/16 05:14:09;;;;;;;15.97;11.00;;;16.70;99.90;;;;;;4840217;29;20477;-85
2021/07/16 05:16:42;;;;;;;17.50;9.40;;;16.70;99.90;;;;;;4827017;29;20913;-84
2021/07/16 05:19:09;;;;;;;15.50;9.47;;;16.60;99.90;;;;;;4825728;29;20516;-83
2021/07/16 05:21:36;;;;;;;10.50;9.27;;;16.60;99.90;;;;;;4825537;29;20438;-85
2021/07/16 05:24:04;;;;;;;17.63;9.73;;;16.60;99.90;;;;;;4825753;29;20526;-84
2021/07/16 05:26:31;;;;;;;12.53;10.17;;;16.60;99.90;;;;;;4840585;29;20449;-84
2021/07/16 05:28:58;;;;;;;14.30;9.67;;;16.60;99.90;;;;;;4833789;29;20471;-85
2021/07/16 05:31:25;;;;;;;21.57;10.00;;;16.60;99.90;;;;;;4844431;29;20793;-82
2021/07/16 05:33:52;;;;;;;14.00;9.53;;;16.60;99.90;;;;;;4826240;29;20487;-83
2021/07/16 05:36:19;;;;;;;20.53;10.57;;;16.60;99.90;;;;;;4840325;29;20432;-84
2021/07/16 05:38:46;;;;;;;15.40;10.43;;;16.60;99.90;;;;;;4827347;29;20473;-85
2021/07/16 05:41:13;;;;;;;20.57;11.47;;;16.60;99.90;;;;;;4842745;29;20803;-83
2021/07/16 05:43:40;;;;;;;13.40;10.57;;;16.60;99.90;;;;;;4857535;29;20543;-82
2021/07/16 05:46:07;;;;;;;18.83;9.80;;;16.60;99.90;;;;;;4842885;29;20535;-84
2021/07/16 05:48:37;;;;;;;17.13;10.17;;;16.50;99.90;;;;;;4832572;29;20465;-83
2021/07/16 05:51:07;;;;;;;15.87;10.13;;;16.60;99.90;;;;;;4839594;29;20522;-84
2021/07/16 05:53:34;;;;;;;16.80;11.07;;;16.50;99.90;;;;;;4839354;29;20891;-82
2021/07/16 05:56:01;;;;;;;19.63;11.67;;;16.50;99.90;;;;;;4825710;29;20454;-84
2021/07/16 05:58:31;;;;;;;16.63;10.83;;;16.50;99.90;;;;;;4823610;29;20470;-83
2021/07/16 06:00:58;;;;;;;24.30;11.97;;;16.60;99.90;;;;;;4824258;29;20438;-83
2021/07/16 06:03:25;;;;;;;17.37;10.60;;;16.60;99.90;;;;;;4824732;29;20474;-82
2021/07/16 06:05:52;;;;;;;18.00;10.63;;;16.60;99.90;;;;;;4825249;29;20442;-84
2021/07/16 06:08:19;;;;;;;17.60;10.27;;;16.60;99.90;;;;;;4821079;29;20505;-84
2021/07/16 06:10:49;;;;;;;14.50;10.60;;;16.60;99.90;;;;;;4845720;29;20510;-83
2021/07/16 06:13:17;;;;;;;13.50;9.80;;;16.60;99.90;;;;;;4857348;29;20885;-81
2021/07/16 06:15:44;;;;;;;17.23;10.63;;;16.60;99.90;;;;;;4858075;29;20445;-81
2021/07/16 06:18:15;;;;;;;14.83;10.50;;;16.60;99.90;;;;;;4835826;29;20486;-81
2021/07/16 06:20:44;;;;;;;16.83;11.23;;;16.60;99.90;;;;;;4839058;29;20637;-83
2021/07/16 06:23:12;;;;;;;14.13;10.00;;;16.60;99.90;;;;;;4822681;29;20466;-82
2021/07/16 06:25:39;;;;;;;14.60;9.83;;;16.60;99.90;;;;;;4825513;29;20561;-85
2021/07/16 06:28:07;;;;;;;13.60;10.50;;;16.60;99.90;;;;;;4824304;29;20430;-82
2021/07/16 06:30:34;;;;;;;22.00;10.13;;;16.70;99.90;;;;;;4839055;29;20441;-80
2021/07/16 06:33:01;;;;;;;17.27;10.00;;;16.70;99.90;;;;;;4846550;29;20999;-83
2021/07/16 06:35:28;;;;;;;20.30;9.97;;;16.70;99.90;;;;;;4841303;29;20544;-81
2021/07/16 06:37:55;;;;;;;16.67;10.20;;;16.70;99.90;;;;;;4842900;29;21039;-83
2021/07/16 06:40:22;;;;;;;15.17;10.37;;;16.60;99.90;;;;;;4828500;29;20481;-83
2021/07/16 06:42:49;;;;;;;15.17;9.63;;;16.70;99.90;;;;;;4838693;29;21084;-81
2021/07/16 06:45:16;;;;;;;15.87;10.33;;;16.60;99.90;;;;;;4824396;29;20469;-80
2021/07/16 06:47:42;;;;;;;17.40;10.40;;;16.60;99.90;;;;;;4854142;29;20455;-81
2021/07/16 06:50:10;;;;;;;11.77;8.60;;;16.60;99.90;;;;;;4825825;29;20505;-82
2021/07/16 06:52:37;;;;;;;18.37;9.00;;;16.60;99.90;;;;;;4842661;29;20459;-83
2021/07/16 06:55:05;;;;;;;11.77;8.73;;;16.60;99.90;;;;;;4830183;29;20482;-79
2021/07/16 06:57:31;;;;;;;14.47;9.07;;;16.60;99.90;;;;;;4838344;29;20507;-80
2021/07/16 06:59:58;;;;;;;11.83;8.53;;;16.60;99.90;;;;;;4823395;29;21145;-82
2021/07/16 07:02:25;;;;;;;10.57;7.97;;;16.60;99.90;;;;;;4838867;29;20838;-81
2021/07/16 07:04:52;;;;;;;10.83;8.37;;;16.60;99.90;;;;;;4823492;29;20505;-81
2021/07/16 07:07:19;;;;;;;13.20;9.60;;;16.60;99.90;;;;;;4839043;29;20469;-78
2021/07/16 07:09:46;;;;;;;16.07;9.00;;;16.60;99.90;;;;;;4824216;29;20488;-80
2021/07/16 07:12:13;;;;;;;12.73;9.57;;;16.60;99.90;;;;;;4838692;29;20440;-80
2021/07/16 07:14:40;;;;;;;12.40;8.47;;;16.60;99.90;;;;;;4837812;29;20498;-82
2021/07/16 07:17:08;;;;;;;15.03;10.23;;;16.60;99.90;;;;;;4837707;29;20581;-82
2021/07/16 07:19:34;;;;;;;15.60;9.13;;;16.50;99.90;;;;;;4823409;29;21054;-79
2021/07/16 07:22:02;;;;;;;14.93;9.43;;;16.50;99.90;;;;;;4823020;29;20530;-78
2021/07/16 07:24:29;;;;;;;13.47;9.17;;;16.50;99.90;;;;;;4823315;29;20539;-80
2021/07/16 07:26:57;;;;;;;18.93;10.53;;;16.50;99.90;;;;;;4825456;29;20438;-82
2021/07/16 07:29:25;;;;;;;16.33;10.20;;;16.50;99.90;;;;;;4840324;29;20461;-80
2021/07/16 07:31:52;;;;;;;18.63;10.77;;;16.50;99.90;;;;;;4840968;29;20437;-80
2021/07/16 07:34:20;;;;;;;18.23;10.10;;;16.50;99.90;;;;;;4832420;29;20605;-80
2021/07/16 07:36:48;;;;;;;21.07;12.27;;;16.50;99.90;;;;;;4829794;29;20426;-82
2021/07/16 07:39:16;;;;;;;17.33;10.83;;;16.50;99.90;;;;;;4851901;29;20572;-81
2021/07/16 07:42:01;;;;;;;18.07;11.13;;;16.50;99.90;;;;;;4842069;29;20425;-80
2021/07/16 07:44:28;;;;;;;14.63;9.80;;;16.50;99.90;;;;;;4839684;29;20476;-78
2021/07/16 07:46:56;;;;;;;16.47;11.80;;;16.50;99.90;;;;;;4856328;29;20496;-82
2021/07/16 07:49:24;;;;;;;13.83;9.90;;;16.50;99.90;;;;;;4842936;29;20845;-80
2021/07/16 07:51:51;;;;;;;13.90;10.53;;;16.50;99.90;;;;;;4823634;29;20430;-80
2021/07/16 07:54:17;;;;;;;15.93;9.63;;;16.50;99.90;;;;;;4823011;29;20478;-80
2021/07/16 07:56:44;;;;;;;15.30;11.87;;;16.50;99.90;;;;;;4837580;29;20442;-80
2021/07/16 07:59:11;;;;;;;20.00;11.20;;;16.50;99.90;;;;;;4823060;29;20531;-81
2021/07/16 08:01:38;;;;;;;20.00;11.20;;;16.50;99.90;;;;;;4837314;29;20449;-79
2021/07/16 08:04:05;;;;;;;16.97;11.40;;;16.50;99.90;;;;;;4840992;29;20560;-78
2021/07/16 08:06:36;;;;;;;19.47;11.57;;;16.50;99.90;;;;;;4855708;29;20470;-82
2021/07/16 08:09:04;;;;;;;21.93;11.80;;;16.50;99.90;;;;;;4836211;29;20501;-80
2021/07/16 08:11:31;;;;;;;18.10;11.00;;;16.50;99.90;;;;;;4823434;29;20517;-79
2021/07/16 08:13:59;;;;;;;14.33;10.80;;;16.50;99.90;;;;;;4827974;29;20561;-79
2021/07/16 08:16:26;;;;;;;20.20;11.83;;;16.40;99.90;;;;;;4840997;29;20441;-81
2021/07/16 08:18:54;;;;;;;20.73;12.23;;;16.50;99.90;;;;;;4839647;29;20477;-80
2021/07/16 08:21:22;;;;;;;15.63;10.90;;;16.50;99.90;;;;;;4841473;29;20437;-80
2021/07/16 08:23:50;;;;;;;26.57;14.47;;;16.50;99.90;;;;;;4837824;29;20576;-80
2021/07/16 08:26:19;;;;;;;20.43;12.97;;;16.50;99.90;;;;;;4822126;29;20536;-80
2021/07/16 08:28:51;;;;;;;20.13;13.43;;;16.50;99.90;;;;;;4821595;29;20530;-79
2021/07/16 08:31:18;;;;;;;24.10;12.90;;;16.50;99.90;;;;;;4822202;29;20430;-80
2021/07/16 08:33:45;;;;;;;18.90;13.03;;;16.50;99.90;;;;;;4824960;29;20822;-80
2021/07/16 08:36:15;;;;;;;20.57;12.70;;;16.60;99.90;;;;;;4841345;29;20437;-79
2021/07/16 08:38:45;;;;;;;15.90;11.80;;;16.60;99.90;;;;;;4852611;29;20473;-79
2021/07/16 08:41:12;;;;;;;20.37;11.70;;;16.70;99.90;;;;;;4823242;29;20434;-80
2021/07/16 08:43:41;;;;;;;19.37;11.77;;;16.70;99.90;;;;;;4847626;29;21118;-79
2021/07/16 08:46:13;;;;;;;21.73;11.97;;;16.80;99.90;;;;;;4840458;29;20440;-81
2021/07/16 08:48:41;;;;;;;18.70;12.80;;;16.70;99.90;;;;;;4857015;29;20563;-78
2021/07/16 08:51:16;;;;;;;15.20;12.07;;;16.70;99.90;;;;;;4843741;29;20440;-78
2021/07/16 08:53:52;;;;;;;21.57;14.07;;;16.80;99.90;;;;;;4841899;29;20563;-79
2021/07/16 08:56:26;;;;;;;17.40;12.20;;;16.90;99.90;;;;;;4843504;29;20438;-79
2021/07/16 08:58:55;;;;;;;21.63;13.27;;;16.90;99.90;;;;;;4835538;29;20557;-78
2021/07/16 09:01:23;;;;;;;21.23;12.90;;;17.00;99.90;;;;;;4846191;29;20449;-78
2021/07/16 09:04:05;;;;;;;17.20;11.20;;;17.10;99.90;;;;;;4836940;29;20482;-77
2021/07/16 09:06:45;;;;;;;15.60;12.00;;;17.10;99.90;;;;;;4826237;29;20437;-78
2021/07/16 09:09:16;;;;;;;22.77;11.03;;;17.30;99.90;;;;;;4830407;29;20477;-77
2021/07/16 09:11:46;;;;;;;15.70;9.60;;;17.40;99.90;;;;;;4838394;29;20805;-79
2021/07/16 09:14:21;;;;;;;16.73;12.63;;;17.50;99.90;;;;;;4825580;29;20488;-78
2021/07/16 09:17:00;;;;;;;14.97;9.63;;;17.50;99.90;;;;;;4825107;29;20486;-78
2021/07/16 09:19:33;;;;;;;15.50;9.67;;;17.50;99.90;;;;;;4825738;29;21064;-78
2021/07/16 09:22:03;;;;;;;13.83;9.03;;;17.50;99.90;;;;;;4826220;29;20884;-76
2021/07/16 09:24:30;;;;;;;10.80;9.40;;;17.50;99.90;;;;;;4825542;29;20491;-77
2021/07/16 09:26:58;;;;;;;17.30;10.43;;;17.50;99.90;;;;;;4826078;29;20458;-75
2021/07/16 09:29:31;;;;;;;14.43;9.70;;;17.40;99.90;;;;;;4825898;29;20481;-76
2021/07/16 09:32:07;;;;;;;17.40;9.77;;;17.40;99.90;;;;;;4825847;29;20450;-75
2021/07/16 09:34:34;;;;;;;12.37;10.20;;;17.50;99.90;;;;;;4825535;29;20572;-75
2021/07/16 09:37:09;;;;;;;10.67;9.53;;;17.40;99.90;;;;;;4825794;29;20521;-77
2021/07/16 09:39:45;;;;;;;18.43;10.90;;;17.40;99.90;;;;;;4832648;29;20500;-77
2021/07/16 09:42:13;;;;;;;14.87;9.77;;;17.40;99.90;;;;;;4826004;29;20487;-75
2021/07/16 09:44:41;;;;;;;11.83;9.97;;;17.40;99.90;;;;;;4825206;29;20478;-77
2021/07/16 09:47:16;;;;;;;15.40;10.20;;;17.50;99.90;;;;;;4825605;29;20439;-79
2021/07/16 09:49:50;;;;;;;17.40;10.27;;;17.40;99.90;;;;;;4825091;29;20483;-77
2021/07/16 09:52:19;;;;;;;18.03;11.60;;;17.40;99.90;;;;;;4848638;29;20446;-80
2021/07/16 09:55:10;;;;;;;17.70;11.77;;;17.40;99.90;;;;;;4833544;29;20523;-76
2021/07/16 09:57:47;;;;;;;18.17;10.50;;;17.50;99.90;;;;;;4829230;29;20429;-78
2021/07/16 10:00:15;;;;;;;20.53;9.87;;;17.50;99.90;;;;;;4857461;29;20470;-79
2021/07/16 10:02:50;;;;;;;17.23;9.53;;;17.60;99.90;;;;;;4860068;29;20454;-80
2021/07/16 10:05:18;;;;;;;12.30;9.20;;;17.60;99.90;;;;;;4857361;29;20488;-79
2021/07/16 10:07:50;;;;;;;14.27;9.87;;;17.60;99.90;;;;;;4857141;29;20454;-78
2021/07/16 10:10:18;;;;;;;17.80;10.53;;;17.60;99.90;;;;;;4823966;29;20500;-76
2021/07/16 10:12:51;;;;;;;15.50;9.40;;;17.50;99.90;;;;;;4811165;29;20553;-79
2021/07/16 10:15:20;;;;;;;18.03;9.20;;;17.40;99.90;;;;;;4826227;29;20502;-78
2021/07/16 10:17:50;;;;;;;14.73;9.97;;;17.40;99.90;;;;;;4842319;29;20544;-77
2021/07/16 10:20:18;;;;;;;18.87;10.80;;;17.40;99.90;;;;;;4856405;29;20825;-76
2021/07/16 10:22:49;;;;;;;15.13;11.17;;;17.30;99.90;;;;;;4841857;29;20450;-77
2021/07/16 10:25:19;;;;;;;15.97;9.63;;;17.40;99.90;;;;;;4829088;29;20466;-80
2021/07/16 10:27:48;;;;;;;14.40;10.20;;;17.50;99.90;;;;;;4858051;29;20491;-81
2021/07/16 10:30:22;;;;;;;18.47;9.40;;;17.50;99.90;;;;;;4842149;29;20497;-79
2021/07/16 10:32:53;;;;;;;15.57;8.93;;;17.60;99.90;;;;;;4835869;29;20465;-79
2021/07/16 10:35:28;;;;;;;13.83;8.37;;;17.60;99.90;;;;;;4857881;29;20818;-79
2021/07/16 10:37:58;;;;;;;15.37;9.17;;;17.60;99.90;;;;;;4842834;29;20464;-79
2021/07/16 10:40:36;;;;;;;12.67;8.93;;;17.70;99.90;;;;;;4827024;29;20473;-78
2021/07/16 10:43:27;;;;;;;13.13;10.17;;;17.60;99.90;;;;;;4824647;29;20581;-78
2021/07/16 10:46:22;;;;;;;11.30;8.43;;;17.60;99.90;;;;;;4834476;29;20532;-80
2021/07/16 10:48:50;;;;;;;16.63;9.10;;;17.60;99.90;;;;;;4826546;29;20470;-79
2021/07/16 10:51:26;;;;;;;9.60;8.37;;;17.60;99.90;;;;;;4824979;29;20430;-78
2021/07/16 10:53:58;;;;;;;13.37;9.20;;;17.60;99.90;;;;;;4831524;29;20483;-81
2021/07/16 10:57:11;;;;;;;11.07;9.60;;;17.60;99.90;;;;;;4823439;29;20434;-78
2021/07/16 10:59:46;;;;;;;9.83;8.83;;;17.60;99.90;;;;;;4837913;29;20648;-79
2021/07/16 11:02:44;;;;;;;16.73;9.63;;;17.60;99.90;;;;;;4823853;29;20960;-79
2021/07/16 11:05:38;;;;;;;17.23;10.50;;;17.60;99.90;;;;;;4831481;29;20843;-78
2021/07/16 11:08:06;;;;;;;14.33;10.43;;;17.70;99.90;;;;;;4842997;29;20457;-75
2021/07/16 11:10:43;;;;;;;13.60;8.90;;;17.70;99.90;;;;;;4826097;29;20957;-78
2021/07/16 11:13:35;;;;;;;12.13;8.30;;;17.70;99.90;;;;;;4841954;29;20459;-79
2021/07/16 11:16:15;;;;;;;12.50;8.77;;;17.80;99.90;;;;;;4842746;29;20429;-76
2021/07/16 11:18:59;;;;;;;16.23;10.50;;;17.80;99.90;;;;;;4815354;29;20524;-77
2021/07/16 11:21:40;;;;;;;13.27;8.33;;;17.80;99.90;;;;;;4824097;29;20449;-75
2021/07/16 11:24:07;;;;;;;12.67;9.00;;;17.80;99.90;;;;;;4842669;29;20858;-77
2021/07/16 11:26:52;;;;;;;14.17;9.53;;;17.80;99.90;;;;;;4837890;29;20548;-77
2021/07/16 11:29:23;;;;;;;12.27;8.83;;;17.80;99.90;;;;;;4824911;29;20505;-74
2021/07/16 11:32:08;;;;;;;16.40;8.93;;;17.80;99.90;;;;;;4855015;29;20446;-75
2021/07/16 11:34:37;;;;;;;13.90;10.20;;;17.90;99.90;;;;;;4823468;29;20474;-75
2021/07/16 11:37:05;;;;;;;16.73;8.60;;;18.00;99.90;;;;;;4823722;29;20434;-77
2021/07/16 11:39:38;;;;;;;13.50;8.13;;;18.00;99.90;;;;;;4823242;29;20490;-77
2021/07/16 11:42:07;;;;;;;11.47;7.73;;;18.20;99.90;;;;;;4847530;29;20729;-76
2021/07/16 11:44:38;;;;;;;8.53;7.47;;;18.30;99.90;;;;;;4840143;29;20493;-75
2021/07/16 11:47:17;;;;;;;13.33;8.10;;;18.50;99.90;;;;;;4839228;29;20509;-76
2021/07/16 11:49:50;;;;;;;11.17;6.77;;;18.50;99.90;;;;;;4829122;29;20469;-75
2021/07/16 11:52:25;;;;;;;14.07;8.13;;;18.60;99.90;;;;;;4808188;29;20451;-76
2021/07/16 11:55:01;;;;;;;10.30;8.20;;;18.60;99.90;;;;;;4844433;29;20520;-76
2021/07/16 11:57:30;;;;;;;16.93;7.70;;;18.50;99.90;;;;;;4851137;29;20806;-76
2021/07/16 12:00:00;;;;;;;16.13;8.93;;;18.60;99.90;;;;;;4854792;29;21025;-76
2021/07/16 12:02:38;;;;;;;12.63;8.67;;;18.60;99.90;;;;;;4841455;29;20492;-75
2021/07/16 12:05:06;;;;;;;18.73;8.40;;;18.70;99.90;;;;;;4827615;29;20473;-76
2021/07/16 12:07:38;;;;;;;11.37;7.30;;;18.80;99.90;;;;;;4841526;29;20539;-76
2021/07/16 12:10:11;;;;;;;15.50;7.13;;;19.00;99.90;;;;;;4838983;29;20476;-75
2021/07/16 12:12:38;;;;;;;16.33;7.60;;;18.90;99.90;;;;;;4841570;29;20523;-76
2021/07/16 12:15:17;;;;;;;19.40;8.03;;;18.90;99.90;;;;;;4837454;29;20470;-75
2021/07/16 12:17:55;;;;;;;15.70;7.73;;;18.90;99.90;;;;;;4822562;29;20895;-75
2021/07/16 12:20:31;;;;;;;14.53;6.93;;;18.80;99.90;;;;;;4822261;29;20479;-76
2021/07/16 12:23:05;;;;;;;14.03;7.67;;;18.60;99.90;;;;;;4828204;29;20542;-77
2021/07/16 12:25:35;;;;;;;14.63;6.47;;;18.50;99.90;;;;;;4835698;29;20623;-76
2021/07/16 12:28:17;;;;;;;15.73;8.03;;;18.40;99.90;;;;;;4837092;29;20957;-77
2021/07/16 12:30:46;;;;;;;11.30;6.90;;;18.40;99.90;;;;;;4826080;29;20466;-77
2021/07/16 12:33:14;;;;;;;14.13;6.63;;;18.50;99.90;;;;;;4853302;29;21067;-77
2021/07/16 12:35:45;;;;;;;17.80;7.57;;;18.50;99.90;;;;;;4806884;29;21036;-77
2021/07/16 12:38:15;;;;;;;14.50;7.73;;;18.60;99.90;;;;;;4822698;29;20441;-77
2021/07/16 12:40:45;;;;;;;12.60;7.80;;;18.50;99.90;;;;;;4837167;29;20450;-77
2021/07/16 12:43:16;;;;;;;11.20;7.90;;;18.50;99.90;;;;;;4840024;29;20489;-76